Time;durP1;ratioP1;P1;durP2;ratioP2;P2;SDS_P1;SDS_P2;PMS_P1;PMS_P2;Temp;Humidity;BMP_temperature;BMP_pressure;BME280_temperature;BME280_humidity;BME280_pressure;Samples;Min_cycle;Max_cycle;Signal;HPM_P1;HPM_P2
2021/10/30 00:02:05;;;;;;;;;;;;;;;5.32;75.89;95991.50;5075949;28;19954;-76
2021/10/30 00:04:31;;;;;;;;;;;;;;;5.31;76.35;95989.88;5075801;28;20418;-76
2021/10/30 00:06:59;;;;;;;;;;;;;;;5.29;76.72;95987.47;5075889;28;19958;-76
2021/10/30 00:09:25;;;;;;;;;;;;;;;5.29;76.75;95995.28;5075580;28;19956;-76
2021/10/30 00:11:51;;;;;;;;;;;;;;;5.26;76.38;95991.28;5074788;28;19964;-76
2021/10/30 00:14:17;;;;;;;;;;;;;;;5.23;76.39;95989.06;5076037;28;19957;-76
2021/10/30 00:16:43;;;;;;;;;;;;;;;5.22;76.50;95991.84;5075520;28;20337;-76
2021/10/30 00:19:09;;;;;;;;;;;;;;;5.22;77.01;95989.25;5076200;28;19955;-76
2021/10/30 00:21:35;;;;;;;;;;;;;;;5.24;77.61;95985.47;5075472;28;20033;-76
2021/10/30 00:24:01;;;;;;;;;;;;;;;5.26;77.31;95985.28;5075614;28;19958;-77
2021/10/30 00:26:27;;;;;;;;;;;;;;;5.28;77.34;95991.06;5075277;28;19949;-76
2021/10/30 00:28:53;;;;;;;;;;;;;;;5.27;77.27;95985.09;5075471;28;19955;-76
2021/10/30 00:31:18;;;;;;;;;;;;;;;5.25;76.99;95979.28;5075119;28;19969;-76
2021/10/30 00:33:44;;;;;;;;;;;;;;;5.24;76.87;95974.28;5075482;28;20009;-76
2021/10/30 00:36:10;;;;;;;;;;;;;;;5.23;76.83;95970.09;5075215;28;19954;-77
2021/10/30 00:38:37;;;;;;;;;;;;;;;5.24;77.17;95963.88;5075179;28;19959;-77
2021/10/30 00:41:05;;;;;;;;;;;;;;;5.23;77.29;95944.09;5074918;28;19952;-76
2021/10/30 00:43:31;;;;;;;;;;;;;;;5.22;77.27;95945.84;5075257;28;19955;-76
2021/10/30 00:45:57;;;;;;;;;;;;;;;5.20;77.29;95945.25;5075256;28;19955;-76
2021/10/30 00:48:23;;;;;;;;;;;;;;;5.18;76.84;95947.25;5074949;28;19954;-76
2021/10/30 00:50:50;;;;;;;;;;;;;;;5.15;76.77;95944.25;5074845;28;20390;-76
2021/10/30 00:53:17;;;;;;;;;;;;;;;5.12;76.78;95948.03;5074559;28;19977;-76
2021/10/30 00:55:44;;;;;;;;;;;;;;;5.11;76.52;95941.25;5074843;28;19965;-76
2021/10/30 00:58:11;;;;;;;;;;;;;;;5.06;76.69;95933.22;5074665;28;19948;-76
2021/10/30 01:00:37;;;;;;;;;;;;;;;5.02;76.93;95940.63;5074691;28;19950;-76
2021/10/30 01:03:05;;;;;;;;;;;;;;;4.98;76.58;95942.00;5074724;28;19961;-77
2021/10/30 01:05:31;;;;;;;;;;;;;;;4.96;76.46;95940.59;5074688;28;19948;-76
2021/10/30 01:07:57;;;;;;;;;;;;;;;4.93;76.35;95941.78;5074376;28;19953;-76
2021/10/30 01:10:23;;;;;;;;;;;;;;;4.91;76.69;95933.38;5074549;28;19958;-77
2021/10/30 01:12:49;;;;;;;;;;;;;;;4.88;76.45;95942.34;5074627;28;19973;-77
2021/10/30 01:15:15;;;;;;;;;;;;;;;4.84;76.40;95932.56;5074423;28;19962;-76
2021/10/30 01:17:41;;;;;;;;;;;;;;;4.82;76.23;95930.13;5074760;28;19951;-76
2021/10/30 01:20:07;;;;;;;;;;;;;;;4.80;76.21;95926.94;5074319;28;19958;-76
2021/10/30 01:22:35;;;;;;;;;;;;;;;4.81;76.64;95922.56;5073524;28;19968;-76
2021/10/30 01:25:02;;;;;;;;;;;;;;;4.82;76.96;95924.16;5074582;28;20325;-77
2021/10/30 01:27:28;;;;;;;;;;;;;;;4.85;77.48;95913.34;5074392;28;19954;-76
2021/10/30 01:29:54;;;;;;;;;;;;;;;4.87;77.64;95914.78;5074198;28;19958;-76
2021/10/30 01:32:20;;;;;;;;;;;;;;;4.84;77.00;95911.78;5074095;28;19978;-76
2021/10/30 01:34:46;;;;;;;;;;;;;;;4.81;77.15;95912.97;5073642;28;19950;-76
2021/10/30 01:37:13;;;;;;;;;;;;;;;4.79;76.66;95907.16;5074128;28;19956;-76
2021/10/30 01:39:40;;;;;;;;;;;;;;;4.76;76.98;95922.31;5074065;28;19968;-77
2021/10/30 01:42:06;;;;;;;;;;;;;;;4.71;76.73;95909.94;5074262;28;19955;-76
2021/10/30 01:44:32;;;;;;;;;;;;;;;4.67;76.41;95896.53;5073915;28;19954;-77
2021/10/30 01:46:59;;;;;;;;;;;;;;;4.62;76.69;95898.91;5074079;28;19952;-76
2021/10/30 01:49:26;;;;;;;;;;;;;;;4.59;76.86;95899.28;5073932;28;19964;-77
2021/10/30 01:51:52;;;;;;;;;;;;;;;4.58;77.13;95900.28;5073739;28;19976;-76
2021/10/30 01:54:18;;;;;;;;;;;;;;;4.56;77.76;95899.69;5074315;28;20071;-76
2021/10/30 01:56:44;;;;;;;;;;;;;;;4.56;77.55;95891.09;5073826;28;19962;-76
2021/10/30 01:59:10;;;;;;;;;;;;;;;4.58;77.65;95883.91;5073780;28;19953;-76
2021/10/30 02:01:36;;;;;;;;;;;;;;;4.58;78.08;95879.50;5073639;28;19953;-76
2021/10/30 02:04:01;;;;;;;;;;;;;;;4.59;77.80;95875.13;5073646;28;20051;-77
2021/10/30 02:06:27;;;;;;;;;;;;;;;4.57;77.83;95877.91;5073593;28;19958;-76
2021/10/30 02:08:53;;;;;;;;;;;;;;;4.55;77.43;95871.31;5073542;28;20003;-77
2021/10/30 02:11:20;;;;;;;;;;;;;;;4.53;77.38;95870.69;5074234;28;19964;-76
2021/10/30 02:13:45;;;;;;;;;;;;;;;4.51;77.37;95863.09;5073487;28;19960;-77
2021/10/30 02:16:13;;;;;;;;;;;;;;;4.51;77.28;95873.47;5073744;28;19962;-76
2021/10/30 02:18:42;;;;;;;;;;;;;;;4.52;77.57;95871.72;5073534;28;19955;-77
2021/10/30 02:21:08;;;;;;;;;;;;;;;4.52;77.84;95871.72;5073791;28;20523;-77
2021/10/30 02:23:34;;;;;;;;;;;;;;;4.51;78.19;95867.50;5073871;28;19969;-77
2021/10/30 02:26:00;;;;;;;;;;;;;;;4.50;77.88;95873.69;5073420;28;19951;-77
2021/10/30 02:28:26;;;;;;;;;;;;;;;4.46;77.42;95862.88;5072375;28;20358;-77
2021/10/30 02:30:52;;;;;;;;;;;;;;;4.41;77.48;95857.47;5073672;28;19975;-77
2021/10/30 02:33:18;;;;;;;;;;;;;;;4.38;76.99;95863.84;5073473;28;20453;-77
2021/10/30 02:35:44;;;;;;;;;;;;;;;4.36;76.90;95860.63;5077396;28;20009;-76
2021/10/30 02:38:10;;;;;;;;;;;;;;;4.35;76.88;95850.47;5077284;28;19954;-76
2021/10/30 02:40:36;;;;;;;;;;;;;;;4.32;77.20;95851.63;5077306;28;19959;-77
2021/10/30 02:43:02;;;;;;;;;;;;;;;4.32;77.41;95845.66;5077670;28;20324;-77
2021/10/30 02:45:28;;;;;;;;;;;;;;;4.30;77.69;95838.03;5077201;28;19957;-77
2021/10/30 02:47:54;;;;;;;;;;;;;;;4.30;78.19;95838.03;5077295;28;19956;-77
2021/10/30 02:50:21;;;;;;;;;;;;;;;4.30;78.53;95840.63;5077092;28;20052;-77
2021/10/30 02:52:46;;;;;;;;;;;;;;;4.31;78.72;95831.88;5076752;28;19981;-76
2021/10/30 02:55:13;;;;;;;;;;;;;;;4.32;78.93;95830.88;5075729;28;20394;-77
2021/10/30 02:57:45;;;;;;;;;;;;;;;4.35;79.01;95833.09;5077051;28;19960;-77
2021/10/30 03:00:11;;;;;;;;;;;;;;;4.36;79.16;95819.09;5077289;28;19965;-77
2021/10/30 03:02:36;;;;;;;;;;;;;;;4.37;78.92;95818.13;5076918;28;19967;-77
2021/10/30 03:05:02;;;;;;;;;;;;;;;4.38;79.08;95814.53;5076813;28;19955;-77
2021/10/30 03:07:28;;;;;;;;;;;;;;;4.38;79.00;95816.31;5076959;28;19950;-81
2021/10/30 03:09:54;;;;;;;;;;;;;;;4.37;78.85;95812.94;5076792;28;19959;-77
2021/10/30 03:12:20;;;;;;;;;;;;;;;4.36;78.65;95816.50;5076762;28;20013;-77
2021/10/30 03:14:46;;;;;;;;;;;;;;;4.35;78.70;95809.72;5076788;28;19961;-77
2021/10/30 03:17:12;;;;;;;;;;;;;;;4.31;78.41;95808.50;5076440;28;19951;-77
2021/10/30 03:19:38;;;;;;;;;;;;;;;4.30;78.28;95801.72;5076502;28;19956;-77
2021/10/30 03:22:04;;;;;;;;;;;;;;;4.27;78.14;95796.91;5076346;28;19958;-78
2021/10/30 03:24:30;;;;;;;;;;;;;;;4.25;78.08;95801.50;5076640;28;19989;-77
2021/10/30 03:26:56;;;;;;;;;;;;;;;4.22;77.78;95796.69;5076681;28;19965;-77
2021/10/30 03:29:22;;;;;;;;;;;;;;;4.17;77.87;95786.88;5076388;28;19958;-77
2021/10/30 03:31:47;;;;;;;;;;;;;;;4.14;77.47;95786.50;5076227;28;20005;-77
2021/10/30 03:34:13;;;;;;;;;;;;;;;4.08;77.26;95782.88;5076543;28;20447;-77
2021/10/30 03:36:39;;;;;;;;;;;;;;;4.04;77.16;95781.66;5076310;28;19998;-77
2021/10/30 03:39:05;;;;;;;;;;;;;;;3.98;77.07;95778.03;5076403;28;19957;-77
2021/10/30 03:41:31;;;;;;;;;;;;;;;3.94;77.07;95776.81;5076087;28;19953;-77
2021/10/30 03:43:57;;;;;;;;;;;;;;;3.90;77.26;95774.78;5076058;28;19963;-77
2021/10/30 03:46:23;;;;;;;;;;;;;;;3.85;76.93;95778.75;5073844;28;19963;-77
2021/10/30 03:48:49;;;;;;;;;;;;;;;3.84;76.94;95778.94;5076194;28;20010;-77
2021/10/30 03:51:15;;;;;;;;;;;;;;;3.82;77.10;95773.97;5076101;28;19952;-77
2021/10/30 03:53:40;;;;;;;;;;;;;;;3.80;77.28;95763.00;5076279;28;20002;-77
2021/10/30 03:56:06;;;;;;;;;;;;;;;3.76;76.97;95759.19;5075823;28;19987;-77
2021/10/30 03:58:34;;;;;;;;;;;;;;;3.74;77.05;95755.16;5075997;28;19990;-77
2021/10/30 04:00:59;;;;;;;;;;;;;;;3.70;77.08;95749.56;5075727;28;20470;-77
2021/10/30 04:03:25;;;;;;;;;;;;;;;3.68;77.31;95741.19;5076043;28;19960;-77
2021/10/30 04:05:51;;;;;;;;;;;;;;;3.66;77.38;95738.78;5075721;28;19967;-77
2021/10/30 04:08:19;;;;;;;;;;;;;;;3.66;77.48;95735.38;5075652;28;20005;-77
2021/10/30 04:10:45;;;;;;;;;;;;;;;3.64;77.56;95725.19;5075767;28;19950;-77
2021/10/30 04:13:11;;;;;;;;;;;;;;;3.66;77.55;95712.84;5075424;28;19970;-77
2021/10/30 04:15:37;;;;;;;;;;;;;;;3.68;77.74;95717.06;5075537;28;19958;-77
2021/10/30 04:18:03;;;;;;;;;;;;;;;3.68;77.96;95720.44;5075663;28;19958;-77
2021/10/30 04:20:29;;;;;;;;;;;;;;;3.67;77.59;95726.59;5075417;28;19952;-77
2021/10/30 04:22:55;;;;;;;;;;;;;;;3.67;77.86;95713.63;5074351;28;20000;-77
2021/10/30 04:25:21;;;;;;;;;;;;;;;3.66;77.85;95701.69;5075398;28;20405;-77
2021/10/30 04:27:47;;;;;;;;;;;;;;;3.64;77.65;95701.06;5075327;28;19980;-77
2021/10/30 04:30:13;;;;;;;;;;;;;;;3.62;77.72;95703.84;5075341;28;19947;-77
2021/10/30 04:32:39;;;;;;;;;;;;;;;3.61;77.78;95696.25;5075242;28;20052;-77
2021/10/30 04:35:08;;;;;;;;;;;;;;;3.58;77.70;95688.88;5075265;28;19955;-77
2021/10/30 04:37:34;;;;;;;;;;;;;;;3.60;78.32;95697.25;5075677;28;19962;-77
2021/10/30 04:40:00;;;;;;;;;;;;;;;3.57;78.32;95693.28;5074971;28;19955;-77
2021/10/30 04:42:26;;;;;;;;;;;;;;;3.55;77.92;95694.44;5074472;28;19965;-77
2021/10/30 04:44:52;;;;;;;;;;;;;;;3.54;77.49;95692.84;5075059;28;20038;-77
2021/10/30 04:47:19;;;;;;;;;;;;;;;3.50;77.64;95689.81;5074844;28;19956;-77
2021/10/30 04:49:45;;;;;;;;;;;;;;;3.48;77.54;95696.19;5074806;28;19962;-77
2021/10/30 04:52:12;;;;;;;;;;;;;;;3.44;77.40;95699.19;5074410;28;19967;-77
2021/10/30 04:54:37;;;;;;;;;;;;;;;3.44;77.44;95693.19;5075042;28;19953;-77
2021/10/30 04:57:04;;;;;;;;;;;;;;;3.41;77.66;95693.56;5074470;28;19959;-77
2021/10/30 04:59:32;;;;;;;;;;;;;;;3.37;77.47;95693.16;5074082;28;20206;-77
2021/10/30 05:01:58;;;;;;;;;;;;;;;3.35;77.23;95686.56;5074428;28;20300;-77
2021/10/30 05:04:24;;;;;;;;;;;;;;;3.32;77.59;95690.34;5074773;28;19972;-77
2021/10/30 05:06:50;;;;;;;;;;;;;;;3.30;77.67;95684.56;5074488;28;19965;-77
2021/10/30 05:09:16;;;;;;;;;;;;;;;3.28;77.53;95683.94;5074559;28;19983;-77
2021/10/30 05:11:42;;;;;;;;;;;;;;;3.29;77.63;95684.72;5074407;28;19963;-78
2021/10/30 05:14:07;;;;;;;;;;;;;;;3.30;78.20;95679.38;5074331;28;19952;-77
2021/10/30 05:16:33;;;;;;;;;;;;;;;3.32;78.51;95676.56;5074554;28;20399;-77
2021/10/30 05:18:59;;;;;;;;;;;;;;;3.32;78.51;95669.63;5074378;28;19957;-77
2021/10/30 05:21:26;;;;;;;;;;;;;;;3.32;78.46;95661.00;5074242;28;19949;-77
2021/10/30 05:23:54;;;;;;;;;;;;;;;3.30;78.37;95661.22;5074285;28;20313;-77
2021/10/30 05:26:20;;;;;;;;;;;;;;;3.29;78.07;95658.81;5074173;28;20299;-77
2021/10/30 05:28:46;;;;;;;;;;;;;;;3.28;78.60;95657.25;5073820;28;19982;-77
2021/10/30 05:31:11;;;;;;;;;;;;;;;3.29;79.15;95657.03;5074187;28;20458;-77
2021/10/30 05:33:37;;;;;;;;;;;;;;;3.28;78.90;95646.88;5074499;28;20007;-77
2021/10/30 05:36:05;;;;;;;;;;;;;;;3.24;78.39;95644.66;5073983;28;19950;-77
2021/10/30 05:38:32;;;;;;;;;;;;;;;3.20;78.37;95643.44;5074085;28;19953;-77
2021/10/30 05:40:58;;;;;;;;;;;;;;;3.19;78.22;95653.97;5072700;28;19962;-77
2021/10/30 05:43:23;;;;;;;;;;;;;;;3.16;78.15;95657.75;5074022;28;19962;-77
2021/10/30 05:45:49;;;;;;;;;;;;;;;3.17;78.19;95669.72;5073901;28;19962;-77
2021/10/30 05:48:17;;;;;;;;;;;;;;;3.17;78.89;95663.72;5074144;28;19956;-77
2021/10/30 05:50:43;;;;;;;;;;;;;;;3.16;79.19;95669.91;5073998;28;19960;-77
2021/10/30 05:53:09;;;;;;;;;;;;;;;3.16;79.20;95668.13;5073723;28;19988;-77
2021/10/30 05:55:35;;;;;;;;;;;;;;;3.14;78.76;95659.72;5074366;28;19972;-76
2021/10/30 05:58:01;;;;;;;;;;;;;;;3.11;78.75;95654.94;5073639;28;19952;-77
2021/10/30 06:00:27;;;;;;;;;;;;;;;3.07;78.49;95638.19;5073666;28;19964;-77
2021/10/30 06:02:54;;;;;;;;;;;;;;;3.04;78.59;95631.59;5073810;28;19957;-77
2021/10/30 06:05:19;;;;;;;;;;;;;;;3.03;78.56;95617.03;5073903;28;19952;-77
2021/10/30 06:07:45;;;;;;;;;;;;;;;3.02;78.33;95622.41;5072152;28;19966;-77
2021/10/30 06:10:11;;;;;;;;;;;;;;;2.99;78.27;95613.22;5073240;28;19950;-77
2021/10/30 06:12:39;;;;;;;;;;;;;;;2.99;78.26;95604.66;5073612;28;19972;-77
2021/10/30 06:15:09;;;;;;;;;;;;;;;2.98;78.43;95595.28;5073481;28;19963;-77
2021/10/30 06:17:35;;;;;;;;;;;;;;;2.96;78.49;95598.09;5073459;28;19954;-77
2021/10/30 06:20:02;;;;;;;;;;;;;;;2.97;78.62;95602.25;5073856;28;19968;-76
2021/10/30 06:22:28;;;;;;;;;;;;;;;2.97;78.67;95594.47;5073616;28;19965;-77
2021/10/30 06:24:54;;;;;;;;;;;;;;;2.96;78.58;95586.91;5073613;28;19957;-77
2021/10/30 06:27:20;;;;;;;;;;;;;;;2.97;78.51;95583.34;5073556;28;19959;-77
2021/10/30 06:29:46;;;;;;;;;;;;;;;2.98;78.39;95572.78;5073368;28;19954;-77
2021/10/30 06:32:12;;;;;;;;;;;;;;;2.99;78.58;95571.00;5072261;28;19963;-78
2021/10/30 06:34:38;;;;;;;;;;;;;;;3.02;78.82;95570.59;5060007;28;19990;-77
2021/10/30 06:37:04;;;;;;;;;;;;;;;3.05;78.82;95567.63;5073257;28;19953;-77
2021/10/30 06:39:29;;;;;;;;;;;;;;;3.06;78.78;95564.03;5073377;28;19957;-77
2021/10/30 06:41:55;;;;;;;;;;;;;;;3.11;78.77;95560.88;5073423;28;20042;-77
2021/10/30 06:44:21;;;;;;;;;;;;;;;3.16;78.88;95566.28;5073180;28;19957;-77
2021/10/30 06:46:50;;;;;;;;;;;;;;;3.21;78.97;95559.53;5073366;28;19961;-77
2021/10/30 06:49:15;;;;;;;;;;;;;;;3.34;79.09;95557.97;5073335;28;20405;-77
2021/10/30 06:51:42;;;;;;;;;;;;;;;3.52;79.45;95566.00;5073325;28;19951;-77
2021/10/30 06:54:08;;;;;;;;;;;;;;;3.76;79.23;95562.09;5073643;28;19988;-77
2021/10/30 06:56:34;;;;;;;;;;;;;;;4.05;78.88;95586.06;5073372;28;20418;-77
2021/10/30 06:59:03;;;;;;;;;;;;;;;4.31;78.95;95587.09;5073161;28;20410;-77
2021/10/30 07:01:30;;;;;;;;;;;;;;;4.59;79.37;95589.47;5073785;28;20401;-77
2021/10/30 07:03:56;;;;;;;;;;;;;;;4.81;79.09;95590.06;5072987;28;19957;-77
2021/10/30 07:06:23;;;;;;;;;;;;;;;5.02;78.06;95581.22;5073247;28;19978;-77
2021/10/30 07:08:49;;;;;;;;;;;;;;;5.19;77.26;95584.97;5073552;28;20402;-77
2021/10/30 07:11:15;;;;;;;;;;;;;;;5.18;76.14;95587.78;5073237;28;19957;-78
2021/10/30 07:13:41;;;;;;;;;;;;;;;5.12;75.90;95581.59;5072960;28;19972;-77
2021/10/30 07:16:09;;;;;;;;;;;;;;;5.09;76.58;95595.78;5072901;28;19961;-78
2021/10/30 07:18:35;;;;;;;;;;;;;;;5.06;77.06;95585.00;5073127;28;20340;-77
2021/10/30 07:21:01;;;;;;;;;;;;;;;5.05;77.05;95584.19;5075543;28;20005;-77
2021/10/30 07:23:27;;;;;;;;;;;;;;;5.08;77.00;95594.22;5076956;28;19992;-77
2021/10/30 07:25:52;;;;;;;;;;;;;;;5.09;76.95;95584.59;5077004;28;19972;-77
2021/10/30 07:28:18;;;;;;;;;;;;;;;5.14;77.40;95574.38;5076438;28;19964;-77
2021/10/30 07:30:44;;;;;;;;;;;;;;;5.16;77.61;95566.38;5076678;28;20004;-77
2021/10/30 07:33:10;;;;;;;;;;;;;;;5.16;77.87;95567.19;5076224;28;19986;-77
2021/10/30 07:35:36;;;;;;;;;;;;;;;5.16;78.25;95567.19;5076658;28;20321;-77
2021/10/30 07:38:02;;;;;;;;;;;;;;;5.17;78.59;95568.78;5075282;28;19957;-77
2021/10/30 07:40:31;;;;;;;;;;;;;;;5.19;79.41;95560.78;5076375;28;19958;-77
2021/10/30 07:42:57;;;;;;;;;;;;;;;5.22;79.38;95553.34;5076645;28;19961;-77
2021/10/30 07:45:23;;;;;;;;;;;;;;;5.26;79.44;95553.75;5076031;28;20400;-77
2021/10/30 07:47:50;;;;;;;;;;;;;;;5.32;79.75;95554.75;5076167;28;19948;-77
2021/10/30 07:50:16;;;;;;;;;;;;;;;5.38;80.90;95553.91;5076406;28;20009;-77
2021/10/30 07:52:42;;;;;;;;;;;;;;;5.47;80.77;95550.06;5075770;28;19986;-77
2021/10/30 07:55:08;;;;;;;;;;;;;;;5.58;80.96;95546.00;5074758;28;19956;-77
2021/10/30 07:57:35;;;;;;;;;;;;;;;5.68;81.60;95546.34;5076370;28;19963;-77
2021/10/30 08:00:00;;;;;;;;;;;;;;;5.75;80.76;95541.91;5075917;28;19941;-77
2021/10/30 08:02:26;;;;;;;;;;;;;;;5.84;80.63;95552.88;5075842;28;20025;-77
2021/10/30 08:04:52;;;;;;;;;;;;;;;5.92;80.70;95563.00;5075934;28;19955;-77
2021/10/30 08:07:18;;;;;;;;;;;;;;;5.95;79.75;95575.66;5075668;28;20396;-77
2021/10/30 08:09:45;;;;;;;;;;;;;;;5.95;79.28;95573.03;5075810;28;19993;-77
2021/10/30 08:12:11;;;;;;;;;;;;;;;5.96;78.45;95574.63;5075584;28;19946;-76
2021/10/30 08:14:38;;;;;;;;;;;;;;;5.92;77.99;95570.81;5075775;28;19977;-78
2021/10/30 08:17:04;;;;;;;;;;;;;;;5.90;78.04;95559.84;5075807;28;20010;-77
2021/10/30 08:19:30;;;;;;;;;;;;;;;5.74;78.66;95560.34;5075896;28;19945;-77
2021/10/30 08:21:56;;;;;;;;;;;;;;;5.55;79.01;95552.44;5074236;28;19974;-77
2021/10/30 08:24:22;;;;;;;;;;;;;;;5.45;79.65;95550.25;5075727;28;19956;-77
2021/10/30 08:26:48;;;;;;;;;;;;;;;5.43;79.56;95557.47;5075398;28;19957;-77
2021/10/30 08:29:15;;;;;;;;;;;;;;;5.49;79.87;95564.44;5075586;28;19955;-77
2021/10/30 08:31:41;;;;;;;;;;;;;;;5.57;80.52;95570.44;5074875;28;19954;-77
2021/10/30 08:34:07;;;;;;;;;;;;;;;5.64;80.73;95558.19;5075139;28;20013;-77
2021/10/30 08:36:33;;;;;;;;;;;;;;;5.70;81.27;95557.34;5075511;28;20044;-77
2021/10/30 08:38:59;;;;;;;;;;;;;;;5.75;80.27;95554.91;5075224;28;19983;-77
2021/10/30 08:41:25;;;;;;;;;;;;;;;5.82;80.16;95554.88;5075822;28;19952;-77
2021/10/30 08:43:52;;;;;;;;;;;;;;;5.86;79.56;95556.84;5075186;28;19958;-77
2021/10/30 08:46:18;;;;;;;;;;;;;;;5.85;78.80;95557.06;5074873;28;19964;-77
2021/10/30 08:48:45;;;;;;;;;;;;;;;5.82;79.11;95557.50;5074971;28;19982;-77
2021/10/30 08:51:11;;;;;;;;;;;;;;;5.82;79.67;95555.69;5073667;28;19961;-77
2021/10/30 08:53:37;;;;;;;;;;;;;;;5.82;79.94;95552.28;5073678;28;19976;-77
2021/10/30 08:56:04;;;;;;;;;;;;;;;5.83;80.15;95546.06;5074625;28;19952;-77
2021/10/30 08:58:30;;;;;;;;;;;;;;;5.86;79.89;95548.25;5074976;28;19960;-77
2021/10/30 09:00:58;;;;;;;;;;;;;;;5.87;80.29;95548.03;5074573;28;19972;-77
2021/10/30 09:03:24;;;;;;;;;;;;;;;5.90;79.91;95542.41;5075034;28;20316;-77
2021/10/30 09:05:53;;;;;;;;;;;;;;;5.94;80.08;95539.38;5062902;28;19953;-77
2021/10/30 09:08:21;;;;;;;;;;;;;;;5.98;80.35;95543.19;5075033;28;19968;-77
2021/10/30 09:10:49;;;;;;;;;;;;;;;6.02;80.24;95542.56;5074537;28;19955;-77
2021/10/30 09:13:15;;;;;;;;;;;;;;;6.08;80.09;95540.91;5074493;28;20416;-77
2021/10/30 09:15:49;;;;;;;;;;;;;;;6.10;80.64;95536.31;5063290;28;19951;-77
2021/10/30 09:18:19;;;;;;;;;;;;;;;6.14;80.50;95532.28;5074453;28;19959;-77
2021/10/30 09:20:48;;;;;;;;;;;;;;;6.16;80.32;95530.25;5074338;28;19963;-77
2021/10/30 09:23:15;;;;;;;;;;;;;;;6.18;80.49;95537.84;5074475;28;19965;-77
2021/10/30 09:25:51;;;;;;;;;;;;;;;6.19;80.00;95524.59;5074261;28;19964;-77
2021/10/30 09:28:20;;;;;;;;;;;;;;;6.22;80.33;95534.63;5074114;28;19978;-77
2021/10/30 09:30:47;;;;;;;;;;;;;;;6.26;80.52;95535.78;5074277;28;19956;-78
2021/10/30 09:33:14;;;;;;;;;;;;;;;6.29;80.56;95529.34;5058963;28;19957;-77
2021/10/30 09:35:43;;;;;;;;;;;;;;;6.35;80.83;95525.09;5074220;28;19968;-77
2021/10/30 09:38:11;;;;;;;;;;;;;;;6.37;81.04;95517.88;5074095;28;19981;-77
2021/10/30 09:40:37;;;;;;;;;;;;;;;6.43;81.33;95532.66;5074192;28;20329;-77
2021/10/30 09:43:14;;;;;;;;;;;;;;;6.46;81.70;95524.38;5073607;28;20034;-77
2021/10/30 09:45:45;;;;;;;;;;;;;;;6.50;81.93;95523.75;5074492;28;19958;-77
2021/10/30 09:48:12;;;;;;;;;;;;;;;6.51;81.87;95532.38;5073988;28;19952;-77
2021/10/30 09:50:38;;;;;;;;;;;;;;;6.50;81.15;95523.75;5073790;28;19967;-77
2021/10/30 09:53:24;;;;;;;;;;;;;;;6.46;80.63;95527.78;5074104;28;19981;-77
2021/10/30 09:55:51;;;;;;;;;;;;;;;6.40;80.02;95525.25;5059165;28;19954;-77
2021/10/30 09:58:27;;;;;;;;;;;;;;;6.39;80.65;95529.66;5074029;28;20325;-77
2021/10/30 10:00:55;;;;;;;;;;;;;;;6.36;80.27;95529.28;5073804;28;19958;-77
2021/10/30 10:03:22;;;;;;;;;;;;;;;6.36;80.92;95530.06;5073598;28;19951;-77
2021/10/30 10:05:49;;;;;;;;;;;;;;;6.37;80.63;95536.09;5073667;28;19959;-77
2021/10/30 10:08:16;;;;;;;;;;;;;;;6.40;80.88;95533.06;5073928;28;20467;-77
2021/10/30 10:10:41;;;;;;;;;;;;;;;6.43;80.46;95536.03;5073572;28;19964;-77
2021/10/30 10:13:08;;;;;;;;;;;;;;;6.45;80.65;95530.63;5073708;28;20017;-77
2021/10/30 10:15:36;;;;;;;;;;;;;;;6.45;81.41;95531.41;5073573;28;19957;-77
2021/10/30 10:18:02;;;;;;;;;;;;;;;6.45;80.56;95534.03;5072344;28;19973;-77
2021/10/30 10:20:28;;;;;;;;;;;;;;;6.47;80.72;95528.59;5073458;28;19959;-77
2021/10/30 10:22:54;;;;;;;;;;;;;;;6.50;80.42;95526.34;5073366;28;20009;-77
2021/10/30 10:25:26;;;;;;;;;;;;;;;6.49;81.16;95518.78;5073595;28;20443;-77
2021/10/30 10:27:52;;;;;;;;;;;;;;;6.48;80.99;95509.34;5073528;28;19955;-77
2021/10/30 10:30:18;;;;;;;;;;;;;;;6.51;80.98;95503.72;5073585;28;19965;-77
2021/10/30 10:32:44;;;;;;;;;;;;;;;6.57;81.33;95507.25;5073561;28;20007;-77
2021/10/30 10:35:14;;;;;;;;;;;;;;;6.62;81.13;95507.41;5073605;28;19964;-77
2021/10/30 10:37:58;;;;;;;;;;;;;;;6.65;81.33;95499.94;5073543;28;19960;-77
2021/10/30 10:40:29;;;;;;;;;;;;;;;6.69;81.97;95508.94;5073650;28;19966;-76
2021/10/30 10:42:55;;;;;;;;;;;;;;;6.73;81.96;95517.13;5073364;28;20399;-77
2021/10/30 10:45:21;;;;;;;;;;;;;;;6.76;82.21;95536.72;5073637;28;19967;-76
2021/10/30 10:47:50;;;;;;;;;;;;;;;6.77;81.54;95538.34;5073209;28;20057;-77
2021/10/30 10:50:25;;;;;;;;;;;;;;;6.79;80.81;95539.72;5073422;28;19954;-77
2021/10/30 10:53:00;;;;;;;;;;;;;;;6.82;80.39;95536.66;5059907;28;20361;-76
2021/10/30 10:55:27;;;;;;;;;;;;;;;6.86;80.51;95550.84;5075339;28;19957;-77
2021/10/30 10:57:58;;;;;;;;;;;;;;;6.91;80.61;95558.84;5077428;28;19958;-77
2021/10/30 11:00:24;;;;;;;;;;;;;;;6.98;80.29;95556.16;5077320;28;20404;-77
2021/10/30 11:02:50;;;;;;;;;;;;;;;7.03;79.66;95564.09;5077584;28;19964;-76
2021/10/30 11:05:19;;;;;;;;;;;;;;;7.06;79.51;95563.69;5076928;28;20326;-76
2021/10/30 11:07:50;;;;;;;;;;;;;;;7.04;78.48;95562.31;5076887;28;19956;-78
2021/10/30 11:10:31;;;;;;;;;;;;;;;7.02;78.05;95559.91;5062908;28;19969;-76
2021/10/30 11:12:59;;;;;;;;;;;;;;;7.01;78.23;95560.13;5077102;28;19971;-76
2021/10/30 11:15:29;;;;;;;;;;;;;;;6.99;78.79;95560.38;5076770;28;19960;-76
2021/10/30 11:20:43;;;;;;;;;;;;;;;7.02;78.82;95564.34;5076544;28;19959;-77
2021/10/30 11:23:12;;;;;;;;;;;;;;;7.04;79.31;95568.31;5076594;28;20330;-76
2021/10/30 11:25:38;;;;;;;;;;;;;;;7.05;79.55;95569.91;5076450;28;19961;-77
2021/10/30 11:28:04;;;;;;;;;;;;;;;7.08;79.50;95585.13;5076435;28;20471;-77
2021/10/30 11:30:30;;;;;;;;;;;;;;;7.09;79.82;95584.09;5076527;28;20464;-77
2021/10/30 11:32:59;;;;;;;;;;;;;;;7.08;79.40;95585.13;5076435;28;20291;-76
2021/10/30 11:35:25;;;;;;;;;;;;;;;7.08;79.77;95608.59;5076340;28;19951;-77
2021/10/30 11:37:51;;;;;;;;;;;;;;;7.04;79.32;95604.81;5076502;28;19986;-76
2021/10/30 11:40:17;;;;;;;;;;;;;;;7.04;79.84;95597.00;5076312;28;20001;-77
2021/10/30 11:42:43;;;;;;;;;;;;;;;7.00;80.78;95572.38;5076403;28;20484;-77
2021/10/30 11:45:09;;;;;;;;;;;;;;;6.93;80.49;95556.03;5076556;28;19964;-76
2021/10/30 11:47:35;;;;;;;;;;;;;;;6.91;82.35;95571.06;5075967;28;19958;-75
2021/10/30 11:50:06;;;;;;;;;;;;;;;6.90;83.57;95557.22;5076158;28;19961;-76
2021/10/30 11:52:32;;;;;;;;;;;;;;;6.93;83.86;95574.25;5076384;28;20001;-76
2021/10/30 11:54:59;;;;;;;;;;;;;;;6.95;85.19;95555.78;5076251;28;20434;-76
2021/10/30 11:57:25;;;;;;;;;;;;;;;6.97;83.87;95578.03;5075916;28;19959;-77
2021/10/30 11:59:58;;;;;;;;;;;;;;;6.99;85.99;95573.41;5074750;28;19949;-76
2021/10/30 12:02:24;;;;;;;;;;;;;;;7.03;85.42;95592.78;5076076;28;19952;-77
2021/10/30 12:04:50;;;;;;;;;;;;;;;7.09;85.27;95593.72;5076127;28;20323;-76
2021/10/30 12:07:16;;;;;;;;;;;;;;;7.11;85.70;95589.88;5074997;28;19955;-77
2021/10/30 12:09:43;;;;;;;;;;;;;;;7.15;85.22;95576.44;5075671;28;19954;-77
2021/10/30 12:12:20;;;;;;;;;;;;;;;7.18;85.84;95568.16;5075637;28;19951;-77
2021/10/30 12:14:48;;;;;;;;;;;;;;;7.21;85.96;95573.75;5075667;28;19970;-77
2021/10/30 12:17:14;;;;;;;;;;;;;;;7.26;85.71;95567.88;5075553;28;19945;-77
2021/10/30 12:19:43;;;;;;;;;;;;;;;7.32;86.05;95559.19;5075938;28;20305;-77
2021/10/30 12:22:14;;;;;;;;;;;;;;;7.38;86.83;95554.91;5075295;28;20333;-77
2021/10/30 12:24:42;;;;;;;;;;;;;;;7.44;86.43;95567.88;5075618;28;19955;-77
2021/10/30 12:27:08;;;;;;;;;;;;;;;7.48;86.08;95579.47;5075306;28;19955;-77
2021/10/30 12:29:41;;;;;;;;;;;;;;;7.51;85.81;95579.00;5075611;28;19960;-77
2021/10/30 12:32:08;;;;;;;;;;;;;;;7.52;85.41;95588.44;5075212;28;19963;-77
2021/10/30 12:34:41;;;;;;;;;;;;;;;7.53;84.79;95586.63;5075373;28;19954;-77
2021/10/30 12:37:11;;;;;;;;;;;;;;;7.55;84.79;95586.41;5075554;28;19950;-77
2021/10/30 12:39:38;;;;;;;;;;;;;;;7.56;84.68;95586.19;5074978;28;20441;-77
2021/10/30 12:42:06;;;;;;;;;;;;;;;7.58;85.11;95614.66;5075485;28;19956;-77
2021/10/30 12:44:37;;;;;;;;;;;;;;;7.59;85.21;95611.03;5075504;28;19950;-77
2021/10/30 12:47:08;;;;;;;;;;;;;;;7.59;86.71;95617.06;5075315;28;19956;-77
2021/10/30 12:49:34;;;;;;;;;;;;;;;7.59;86.79;95618.88;5075345;28;20413;-76
2021/10/30 12:52:04;;;;;;;;;;;;;;;7.59;85.65;95637.13;5074672;28;19962;-76
2021/10/30 12:54:30;;;;;;;;;;;;;;;7.58;85.90;95646.78;5075020;28;20343;-76
2021/10/30 12:56:56;;;;;;;;;;;;;;;7.55;84.86;95639.38;5074487;28;19965;-76
2021/10/30 12:59:33;;;;;;;;;;;;;;;7.53;84.81;95638.78;5074607;28;19960;-77